Time;durP1;ratioP1;P1;durP2;ratioP2;P2;SDS_P1;SDS_P2;PMS_P1;PMS_P2;Temp;Humidity;BMP_temperature;BMP_pressure;BME280_temperature;BME280_humidity;BME280_pressure;Samples;Min_cycle;Max_cycle;Signal;HPM_P1;HPM_P2
2022/08/11 00:01:30;;;;;;;7.68;3.13;;;;;;;23.68;54.84;100320.44;4974753;28;20059;-69
2022/08/11 00:04:01;;;;;;;6.85;3.00;;;;;;;23.59;54.59;100313.59;4974762;28;20114;-66
2022/08/11 00:06:34;;;;;;;6.15;3.13;;;;;;;23.63;54.71;100320.53;4974350;28;20053;-66
2022/08/11 00:09:01;;;;;;;9.00;3.40;;;;;;;23.51;54.51;100289.16;4973697;28;20464;-68
2022/08/11 00:11:35;;;;;;;8.95;3.35;;;;;;;23.48;55.37;100312.91;4986518;28;20045;-64
2022/08/11 00:14:11;;;;;;;11.13;3.58;;;;;;;23.34;55.48;100300.88;4993416;28;20042;-66
2022/08/11 00:16:38;;;;;;;8.13;3.38;;;;;;;22.84;55.69;100239.44;4993106;28;20054;-70
2022/08/11 00:19:03;;;;;;;6.15;3.65;;;;;;;23.04;56.46;100300.50;4992917;28;20050;-65
2022/08/11 00:21:31;;;;;;;6.88;3.42;;;;;;;22.90;56.58;100307.75;4993006;28;20034;-66
2022/08/11 00:23:59;;;;;;;8.43;3.58;;;;;;;22.74;57.45;100297.50;4987830;28;20054;-67
2022/08/11 00:26:26;;;;;;;6.32;3.10;;;;;;;22.84;57.17;100300.84;4992579;28;20033;-65
2022/08/11 00:28:53;;;;;;;5.28;3.03;;;;;;;22.89;56.81;100304.28;4992564;28;20512;-69
2022/08/11 00:31:30;;;;;;;6.90;3.53;;;;;;;22.82;57.10;100291.22;4992417;28;20042;-67
2022/08/11 00:33:58;;;;;;;7.75;3.45;;;;;;;22.75;57.80;100299.25;4992361;28;21861;-65
2022/08/11 00:36:46;;;;;;;8.80;3.47;;;;;;;22.50;58.50;100292.63;4992461;28;20042;-68
2022/08/11 00:39:13;;;;;;;8.68;3.60;;;;;;;22.44;58.86;100310.22;4992368;28;20054;-65
2022/08/11 00:41:46;;;;;;;6.88;3.15;;;;;;;22.14;58.60;100251.00;4988384;28;20033;-64
2022/08/11 00:44:27;;;;;;;8.00;3.70;;;;;;;22.62;57.76;100319.59;4986759;28;20052;-68
2022/08/11 00:47:08;;;;;;;6.15;3.10;;;;;;;22.70;57.74;100316.84;4973785;28;20793;-65
2022/08/11 00:50:07;;;;;;;10.20;3.47;;;;;;;22.62;58.13;100324.84;4992161;28;20038;-67
2022/08/11 00:53:02;;;;;;;6.22;2.83;;;;;;;22.60;58.09;100315.25;4992338;28;20101;-67
2022/08/11 00:55:39;;;;;;;6.50;3.30;;;;;;;22.34;58.98;100318.22;4992482;28;20109;-66
2022/08/11 00:58:38;;;;;;;6.18;3.25;;;;;;;22.17;59.41;100321.09;4992715;28;20061;-69
2022/08/11 01:01:09;;;;;;;7.22;3.20;;;;;;;22.12;59.33;100319.41;4982380;28;20416;-70
2022/08/11 01:03:44;;;;;;;5.57;3.53;;;;;;;21.79;60.24;100289.16;4993018;28;20125;-68
2022/08/11 01:06:24;;;;;;;8.40;3.83;;;;;;;21.97;60.22;100322.25;4992713;28;20112;-66
2022/08/11 01:09:34;;;;;;;10.05;3.50;;;;;;;21.87;61.03;100316.22;4992651;28;20070;-67
2022/08/11 01:12:26;;;;;;;4.80;3.33;;;;;;;21.98;60.66;100309.06;4913272;29;20659;-66
2022/08/11 01:15:29;;;;;;;4.68;3.10;;;;;;;22.08;60.20;100315.09;4913537;29;20562;-65
2022/08/11 01:18:30;;;;;;;8.63;3.25;;;;;;;22.07;60.05;100318.59;4901907;29;20051;-66
2022/08/11 01:21:33;;;;;;;9.85;3.90;;;;;;;22.15;60.42;100315.84;4913133;29;20036;-66
2022/08/11 01:24:10;;;;;;;7.57;3.50;;;;;;;22.32;60.02;100318.25;4913281;29;20036;-65
2022/08/11 01:27:22;;;;;;;6.05;3.17;;;;;;;22.14;57.33;100307.09;4913134;29;20155;-70
2022/08/11 01:29:59;;;;;;;5.93;3.10;;;;;;;22.25;58.31;100309.56;4913149;29;20051;-69
2022/08/11 01:32:59;;;;;;;6.60;3.00;;;;;;;22.34;58.01;100311.19;4913337;29;20122;-70
2022/08/11 01:35:33;;;;;;;9.32;3.50;;;;;;;21.87;56.62;100213.72;4910293;29;20055;-68
2022/08/11 01:38:17;;;;;;;9.18;3.90;;;;;;;22.44;58.10;100309.34;4912851;29;20040;-68
2022/08/11 01:41:04;;;;;;;4.20;3.25;;;;;;;22.34;58.16;100310.34;4912930;29;20051;-68
2022/08/11 01:46:42;;;;;;;6.22;3.30;;;;;;;22.48;58.13;100323.31;4972115;28;20041;-68
2022/08/11 01:49:26;;;;;;;5.88;3.50;;;;;;;22.50;58.92;100322.41;4979604;28;20118;-71
2022/08/11 01:52:29;;;;;;;8.13;3.50;;;;;;;22.57;58.70;100317.94;4991805;28;20477;-68
2022/08/11 01:55:14;;;;;;;4.90;3.13;;;;;;;22.56;58.53;100324.94;4992069;28;20104;-68
2022/08/11 01:58:07;;;;;;;6.30;3.42;;;;;;;22.59;57.96;100330.19;4979285;28;20100;-68
2022/08/11 02:00:54;;;;;;;7.05;3.10;;;;;;;22.57;57.55;100317.94;4991960;28;20038;-72
2022/08/11 02:03:43;;;;;;;8.05;3.67;;;;;;;22.70;56.46;100327.38;4991983;28;20121;-70
2022/08/11 02:09:24;;;;;;;13.80;3.78;;;;;;;22.44;59.96;100318.13;4976321;28;20044;-68
2022/08/11 02:11:55;;;;;;;13.07;4.57;;;;;;;22.43;61.38;100326.91;4991177;28;20584;-68
2022/08/11 02:14:33;;;;;;;14.05;4.50;;;;;;;22.46;62.29;100339.13;4991413;28;20033;-68
2022/08/11 02:17:33;;;;;;;13.77;4.40;;;;;;;22.49;62.34;100333.81;4991178;28;20497;-69
2022/08/11 02:23:38;;;;;;;9.88;3.55;;;;;;;22.08;63.98;100278.28;4912364;29;20175;-67
2022/08/11 02:26:23;;;;;;;11.98;3.80;;;;;;;22.26;64.76;100347.28;4874312;29;20718;-69
2022/08/11 02:28:54;;;;;;;9.77;3.90;;;;;;;22.18;65.63;100347.38;4875005;29;20467;-67
2022/08/11 02:34:47;;;;;;;9.90;3.40;;;;;;;22.01;66.57;100346.69;4874696;29;20048;-68
2022/08/11 02:37:28;;;;;;;11.02;3.78;;;;;;;21.88;66.32;100346.88;4849221;29;20103;-67
2022/08/11 02:39:56;;;;;;;13.02;3.88;;;;;;;21.87;65.65;100346.88;4850877;29;20133;-68
2022/08/11 02:42:32;;;;;;;7.67;3.70;;;;;;;21.94;64.65;100331.03;4855907;29;20509;-68
2022/08/11 02:45:16;;;;;;;9.63;3.88;;;;;;;21.95;65.29;100326.63;4855785;29;20167;-68
2022/08/11 02:50:51;;;;;;;6.70;3.45;;;;;;;21.96;66.88;100329.22;4856004;29;20041;-68
2022/08/11 02:53:45;;;;;;;13.40;3.60;;;;;;;21.98;66.35;100335.34;4855504;29;20532;-68
2022/08/11 02:56:21;;;;;;;11.70;4.28;;;;;;;22.00;66.83;100337.09;4845060;29;20045;-68
2022/08/11 03:02:21;;;;;;;11.35;3.50;;;;;;;21.78;67.70;100340.84;4855685;29;20084;-67
2022/08/11 03:05:12;;;;;;;11.70;3.67;;;;;;;21.87;68.08;100345.13;4854947;29;20049;-68
2022/08/11 03:07:51;;;;;;;10.38;4.57;;;;;;;22.01;68.54;100341.44;4855224;29;20057;-68
2022/08/11 03:10:42;;;;;;;8.60;3.67;;;;;;;21.83;70.22;100343.41;4854695;29;20563;-68
2022/08/11 03:16:45;;;;;;;8.82;3.95;;;;;;;21.88;70.13;100344.25;4874091;29;20048;-69
2022/08/11 03:19:26;;;;;;;10.02;3.60;;;;;;;21.73;71.05;100352.28;4873794;29;20048;-69
2022/08/11 03:22:13;;;;;;;9.73;3.50;;;;;;;21.63;72.07;100347.16;4873783;29;20037;-68
2022/08/11 03:25:16;;;;;;;8.68;3.67;;;;;;;21.60;71.51;100351.56;4873914;29;20041;-68
2022/08/11 03:28:20;;;;;;;9.05;4.03;;;;;;;21.50;72.12;100354.22;4873292;29;20129;-69
2022/08/11 03:30:54;;;;;;;9.52;3.97;;;;;;;21.12;70.09;100344.09;4836711;29;20054;-69
2022/08/11 03:36:35;;;;;;;16.88;5.32;;;;;;;20.88;66.96;100355.66;4782328;30;20080;-69
2022/08/11 03:39:12;;;;;;;11.40;4.75;;;;;;;20.80;66.73;100353.09;4802396;29;20535;-69
2022/08/11 03:41:56;;;;;;;13.77;5.38;;;;;;;20.81;67.07;100360.97;4818530;29;20562;-69
2022/08/11 03:44:45;;;;;;;9.98;5.38;;;;;;;20.70;67.21;100362.75;4818104;29;20138;-69
2022/08/11 03:47:36;;;;;;;11.85;5.13;;;;;;;20.72;67.13;100360.16;4818485;29;20565;-68
2022/08/11 03:50:33;;;;;;;11.15;5.40;;;;;;;20.57;68.22;100361.09;4816895;29;20050;-69
2022/08/11 03:53:26;;;;;;;23.88;5.82;;;;;;;20.56;67.74;100368.09;4806682;29;20078;-69
2022/08/11 03:56:10;;;;;;;22.98;5.32;;;;;;;20.36;67.41;100318.34;4818432;29;20524;-69
2022/08/11 03:59:06;;;;;;;19.88;5.43;;;;;;;20.48;69.11;100370.72;4818177;29;20042;-69
2022/08/11 04:01:37;;;;;;;14.75;4.95;;;;;;;20.47;68.53;100371.63;4818387;29;20593;-69
2022/08/11 04:04:29;;;;;;;21.02;5.35;;;;;;;20.35;68.99;100375.19;4818422;29;20053;-69
2022/08/11 04:07:28;;;;;;;13.98;4.70;;;;;;;20.07;69.10;100377.03;4839360;29;20265;-67
2022/08/11 04:10:38;;;;;;;16.60;4.78;;;;;;;19.87;68.90;100315.09;4873246;29;20057;-68
2022/08/11 04:13:22;;;;;;;11.77;4.93;;;;;;;20.31;68.73;100373.47;4818341;29;20046;-69
2022/08/11 04:16:28;;;;;;;13.73;5.25;;;;;;;20.33;68.12;100378.69;4818017;29;20212;-68
2022/08/11 04:19:35;;;;;;;15.18;5.00;;;;;;;20.46;68.93;100379.50;4764100;30;20044;-68
2022/08/11 04:22:28;;;;;;;17.65;5.20;;;;;;;20.45;68.15;100372.50;4733715;30;20048;-69
2022/08/11 04:25:05;;;;;;;15.65;5.22;;;;;;;20.56;69.21;100375.97;4739718;30;20048;-68
2022/08/11 04:27:49;;;;;;;17.15;5.35;;;;;;;20.70;68.07;100368.00;4745343;30;20052;-69
2022/08/11 04:30:55;;;;;;;20.05;5.93;;;;;;;20.72;70.89;100381.13;4760718;30;20052;-67
2022/08/11 04:33:40;;;;;;;22.27;5.60;;;;;;;20.65;68.99;100375.88;4746223;30;20852;-68
2022/08/11 04:37:30;;;;;;;26.20;5.75;;;;;;;20.65;69.68;100380.28;4763302;30;20058;-67
2022/08/11 04:39:23;;;;;;;15.98;5.22;;;;;;;20.52;72.38;100382.97;4757227;30;20105;-68
2022/08/11 04:45:09;;;;;;;17.15;5.60;;;;;;;20.56;71.16;100385.56;4767065;30;20050;-69
2022/08/11 05:03:07;;;;;;;18.27;5.00;;;;;;;20.76;68.01;100378.50;4876602;29;20055;-68
2022/08/11 05:06:09;;;;;;;22.00;5.40;;;;;;;20.92;67.44;100384.50;4875613;29;20121;-69
2022/08/11 05:09:05;;;;;;;12.30;4.55;;;;;;;21.03;69.68;100373.06;4875848;29;20081;-68
2022/08/11 05:11:40;;;;;;;18.52;5.32;;;;;;;21.12;66.84;100379.09;4886599;29;20063;-68
2022/08/11 05:34:51;;;;;;;14.60;5.18;;;;;;;22.23;61.62;100371.84;4930988;29;20051;-66
2022/08/11 05:37:22;;;;;;;15.35;6.75;;;;;;;22.20;64.20;100384.16;4930585;29;20577;-68
2022/08/11 05:56:52;;;;;;;11.38;2.72;;;;;;;22.59;59.69;100316.13;4927770;29;20103;-69
2022/08/11 05:59:20;;;;;;;8.82;2.80;;;;;;;23.04;58.42;100379.50;4929724;29;20458;-69
2022/08/11 06:01:47;;;;;;;4.80;2.45;;;;;;;23.10;57.18;100376.78;4933105;28;20044;-68
2022/08/11 06:04:18;;;;;;;9.02;3.63;;;;;;;23.17;58.17;100363.53;4991393;28;20104;-67
2022/08/11 06:06:52;;;;;;;7.38;2.50;;;;;;;23.27;59.29;100375.63;4990956;28;20085;-66
2022/08/11 06:09:47;;;;;;;6.93;2.83;;;;;;;23.33;58.09;100367.63;4990813;28;20042;-70
2022/08/11 06:12:25;;;;;;;6.25;2.58;;;;;;;23.42;59.08;100362.19;4990502;28;20050;-67
2022/08/11 06:14:56;;;;;;;5.05;2.28;;;;;;;23.57;55.83;100370.72;4990760;28;20042;-67
2022/08/11 06:17:23;;;;;;;4.10;2.40;;;;;;;23.64;57.03;100368.81;4990951;28;20041;-68
2022/08/11 06:19:56;;;;;;;7.95;2.40;;;;;;;23.87;56.42;100363.97;4940738;28;20524;-72
2022/08/11 06:22:22;;;;;;;5.82;2.42;;;;;;;23.95;57.35;100363.88;4991246;28;20045;-67
2022/08/11 06:24:57;;;;;;;9.25;3.08;;;;;;;24.08;54.45;100361.00;4991415;28;20050;-67
2022/08/11 06:27:26;;;;;;;9.38;3.03;;;;;;;24.17;53.53;100364.28;4991666;28;20034;-72
2022/08/11 06:29:53;;;;;;;8.68;2.60;;;;;;;24.02;53.10;100370.75;4991648;28;20129;-69
2022/08/11 06:32:22;;;;;;;3.30;2.10;;;;;;;24.16;54.12;100369.59;4991784;28;20038;-71
2022/08/11 06:35:12;;;;;;;4.53;2.30;;;;;;;24.29;54.80;100372.81;4974177;28;20042;-68
2022/08/11 06:38:08;;;;;;;4.20;2.13;;;;;;;24.38;54.71;100362.94;4991189;28;20068;-67
2022/08/11 06:40:40;;;;;;;3.58;2.03;;;;;;;24.54;53.15;100365.25;4991471;28;20038;-69
2022/08/11 06:43:16;;;;;;;3.75;2.17;;;;;;;24.13;53.78;100261.53;4991492;28;20069;-68
2022/08/11 06:48:43;;;;;;;3.25;2.00;;;;;;;24.82;53.05;100365.53;5550572;22;20057;-69
2022/08/11 06:51:13;;;;;;;2.20;1.80;;;;;;;24.85;51.72;100357.53;5031279;28;20040;-68
2022/08/11 06:53:44;;;;;;;5.72;1.63;;;;;;;24.78;51.80;100358.56;5031167;28;20155;-68
2022/08/11 07:02:03;;;;;;;3.60;2.25;;;;;;;25.05;51.84;100348.25;5031166;28;20175;-68
2022/08/11 07:04:43;;;;;;;2.78;1.95;;;;;;;25.06;50.10;100350.00;5030915;28;20052;-68
2022/08/11 07:16:01;;;;;;;2.35;1.80;;;;;;;24.93;51.12;100315.06;5031225;28;20124;-68
2022/08/11 07:29:54;;;;;;;7.38;2.70;;;;;;;25.54;48.33;100355.84;5030818;28;20522;-68
2022/08/11 07:32:32;;;;;;;3.30;2.00;;;;;;;25.25;50.00;100308.09;5030831;28;20038;-67
2022/08/11 07:35:12;;;;;;;3.65;1.95;;;;;;;25.19;48.73;100295.06;4995876;28;20112;-68
2022/08/11 07:37:40;;;;;;;;;;;;;;;25.62;50.84;100349.44;4996201;28;20546;-69
2022/08/11 07:40:06;;;;;;;4.85;1.70;;;;;;;25.68;47.76;100348.38;5030831;28;19956;-68
2022/08/11 07:42:34;;;;;;;2.28;1.75;;;;;;;25.79;48.60;100314.56;5030796;28;20103;-68
2022/08/11 07:53:20;;;;;;;3.72;1.95;;;;;;;26.18;45.99;100320.53;5030786;28;20068;-68
2022/08/11 07:55:52;;;;;;;3.80;1.80;;;;;;;26.40;46.30;100337.50;5031328;28;20053;-68
2022/08/11 08:20:21;;;;;;;3.83;2.00;;;;;;;27.84;44.99;100329.16;5034139;28;20038;-68
2022/08/11 08:22:55;;;;;;;7.32;2.00;;;;;;;27.87;45.60;100326.41;5031445;28;20037;-69
2022/08/11 08:25:23;;;;;;;4.18;2.05;;;;;;;27.61;42.97;100275.19;5033824;28;20053;-69
2022/08/11 08:27:52;;;;;;;3.50;2.00;;;;;;;27.95;42.08;100323.47;5033703;28;20518;-69
2022/08/11 08:33:03;;;;;;;6.60;2.35;;;;;;;27.95;42.99;100329.63;5032809;28;20112;-68
2022/08/11 08:35:29;;;;;;;3.67;1.70;;;;;;;28.02;43.57;100322.31;4998687;28;20037;-69
2022/08/11 08:37:59;;;;;;;4.78;2.00;;;;;;;27.96;42.92;100336.66;5033198;28;20480;-69
2022/08/11 08:40:25;;;;;;;2.65;1.58;;;;;;;28.00;40.70;100324.16;5026057;28;20396;-68
2022/08/11 08:43:02;;;;;;;3.80;1.90;;;;;;;28.02;42.90;100327.63;5013336;28;20168;-67
2022/08/11 08:45:28;;;;;;;2.17;1.75;;;;;;;27.86;44.41;100306.97;5026059;28;20049;-68
2022/08/11 08:48:01;;;;;;;3.65;2.13;;;;;;;27.91;43.10;100310.34;5012955;28;20049;-68
2022/08/11 08:53:31;;;;;;;5.97;1.83;;;;;;;27.68;40.46;100226.31;5012969;28;20055;-68
2022/08/11 08:55:59;;;;;;;3.83;1.77;;;;;;;28.44;38.86;100310.97;5013034;28;20567;-69
2022/08/11 08:58:25;;;;;;;2.13;1.65;;;;;;;28.60;39.37;100307.69;5013071;28;20412;-69
2022/08/11 09:00:55;;;;;;;2.50;1.58;;;;;;;28.56;39.26;100285.69;5020158;28;20033;-68
2022/08/11 09:03:21;;;;;;;1.90;1.60;;;;;;;28.84;40.40;100306.72;5021363;28;20803;-69
2022/08/11 09:05:48;;;;;;;3.00;1.60;;;;;;;28.93;40.33;100307.25;5022256;28;20036;-70
2022/08/11 09:08:18;;;;;;;4.30;1.63;;;;;;;28.89;40.16;100298.56;5021948;28;20050;-70
2022/08/11 09:11:48;;;;;;;2.63;1.85;;;;;;;28.85;40.34;100302.28;5023677;28;20044;-70
2022/08/11 09:13:34;;;;;;;3.42;1.73;;;;;;;28.93;38.65;100293.97;5016101;28;20042;-69
2022/08/11 09:16:00;;;;;;;10.10;2.08;;;;;;;29.10;37.73;100302.09;5012482;28;20030;-70
2022/08/11 09:18:27;;;;;;;4.25;1.95;;;;;;;29.33;38.49;100300.25;4999091;28;20041;-70
2022/08/11 09:20:53;;;;;;;12.68;2.42;;;;;;;29.12;37.53;100275.44;5021761;28;20028;-69
2022/08/11 09:29:00;;;;;;;4.68;1.52;;;;;;;28.80;38.97;100229.84;4970631;28;20485;-67
2022/08/11 09:31:30;;;;;;;2.25;1.80;;;;;;;29.29;36.35;100290.69;4970234;28;20074;-71
2022/08/11 09:33:56;;;;;;;2.47;1.60;;;;;;;29.46;39.19;100288.13;4968653;28;20148;-69
2022/08/11 09:41:54;;;;;;;2.35;1.40;;;;;;;29.46;37.43;100244.72;4947623;28;20057;-68
2022/08/11 09:47:12;;;;;;;2.35;1.70;;;;;;;29.99;35.40;100270.66;4968524;28;20050;-69
2022/08/11 09:49:37;;;;;;;1.98;1.25;;;;;;;29.93;34.65;100211.53;4968145;28;20101;-69
2022/08/11 09:52:08;;;;;;;4.20;1.77;;;;;;;30.27;37.35;100247.16;4968573;28;20106;-70
2022/08/11 09:54:34;;;;;;;2.53;1.65;;;;;;;30.51;36.36;100255.78;4968407;28;20035;-71
2022/08/11 09:59:44;;;;;;;3.15;1.50;;;;;;;30.42;35.09;100254.41;4966971;28;20054;-72
2022/08/11 10:02:12;;;;;;;3.13;1.73;;;;;;;30.71;37.22;100262.78;4969988;28;20164;-72
2022/08/11 10:04:41;;;;;;;20.58;5.32;;;;;;;30.74;36.95;100265.25;4990013;28;20460;-74
2022/08/11 10:07:09;;;;;;;;;;;;;;;30.79;32.85;100254.38;4999971;28;20041;-72
2022/08/11 10:10:04;;;;;;;4.38;1.67;;;;;;;30.69;38.24;100253.13;4993440;28;20679;-70
2022/08/11 10:12:36;;;;;;;4.53;1.83;;;;;;;30.58;34.08;100251.00;4989960;28;20121;-71
2022/08/11 10:20:50;;;;;;;5.47;1.40;;;;;;;30.90;33.90;100249.34;5003295;28;20061;-72
2022/08/11 10:28:48;;;;;;;2.47;1.50;;;;;;;31.39;33.90;100251.28;4995242;28;20810;-75
2022/08/11 10:34:15;;;;;;;1.98;1.60;;;;;;;31.38;34.65;100238.91;4946441;28;20130;-74
2022/08/11 10:36:47;;;;;;;2.35;1.65;;;;;;;31.47;33.49;100248.19;4949040;28;20493;-71
2022/08/11 10:39:21;;;;;;;5.72;1.73;;;;;;;31.56;32.09;100252.19;4933027;29;20046;-72
2022/08/11 10:44:36;;;;;;;3.45;1.90;;;;;;;31.72;35.13;100214.88;4949258;28;20070;-72
2022/08/11 10:51:11;;;;;;;1.98;1.40;;;;;;;32.40;34.26;100219.91;4936412;28;20094;-72
2022/08/11 11:00:50;;;;;;;1.92;1.60;;;;;;;32.68;30.37;100223.63;4939738;28;20054;-76
2022/08/11 11:03:16;;;;;;;2.63;1.50;;;;;;;32.68;30.85;100220.94;4939093;28;20032;-73
2022/08/11 11:05:44;;;;;;;2.85;1.65;;;;;;;32.03;31.13;100218.47;4942074;28;20047;-72
2022/08/11 11:11:04;;;;;;;2.63;1.80;;;;;;;32.22;30.02;100162.22;5026286;28;20040;-70
2022/08/11 11:19:08;;;;;;;2.42;1.70;;;;;;;33.00;31.07;100204.81;5014871;28;20096;-70
2022/08/11 11:21:36;;;;;;;1.52;1.30;;;;;;;33.13;30.10;100214.75;5011189;28;20041;-70
2022/08/11 11:24:40;;;;;;;2.55;1.67;;;;;;;33.32;28.75;100201.97;5014924;28;20578;-68
2022/08/11 11:27:31;;;;;;;2.45;1.73;;;;;;;32.96;28.54;100119.50;5011182;28;20049;-69
2022/08/11 11:30:02;;;;;;;3.38;1.60;;;;;;;33.57;28.49;100205.75;5006990;28;20050;-73
2022/08/11 11:32:34;;;;;;;2.50;1.70;;;;;;;33.45;29.18;100198.50;5012976;28;20109;-69
2022/08/11 11:35:16;;;;;;;5.32;1.73;;;;;;;33.35;29.70;100201.78;5015296;28;20038;-71
2022/08/11 11:37:47;;;;;;;1.92;1.65;;;;;;;33.19;29.16;100179.59;5014014;28;20060;-74
2022/08/11 11:40:20;;;;;;;1.67;1.50;;;;;;;33.16;31.10;100193.13;5013313;28;20029;-77
2022/08/11 11:42:47;;;;;;;3.92;1.60;;;;;;;33.03;32.09;100177.00;5027585;28;20488;-74
2022/08/11 11:45:21;;;;;;;2.15;1.70;;;;;;;33.38;30.86;100193.53;5013209;28;20052;-71
2022/08/11 11:47:51;;;;;;;2.80;1.60;;;;;;;33.14;29.59;100195.06;5012480;28;20488;-71
2022/08/11 11:50:28;;;;;;;2.92;1.70;;;;;;;33.07;30.08;100191.91;5012347;28;20164;-72
2022/08/11 11:53:14;;;;;;;2.00;1.80;;;;;;;32.75;29.80;100178.72;5008403;28;20507;-73
2022/08/11 11:55:40;;;;;;;3.15;1.95;;;;;;;33.14;29.07;100189.72;5010037;28;20041;-72
2022/08/11 12:03:39;;;;;;;1.60;1.50;;;;;;;33.55;30.75;100191.63;5009317;28;20053;-72
2022/08/11 12:06:07;;;;;;;1.70;1.60;;;;;;;33.65;29.08;100184.72;5010246;28;20117;-70
2022/08/11 12:08:55;;;;;;;3.13;1.58;;;;;;;33.49;29.03;100133.13;4990189;28;20042;-69
2022/08/11 12:14:08;;;;;;;3.35;1.70;;;;;;;34.01;28.73;100161.88;4991241;28;20085;-77
2022/08/11 12:16:42;;;;;;;2.95;1.80;;;;;;;34.04;28.29;100176.88;4990654;28;20038;-73
2022/08/11 12:19:11;;;;;;;3.22;1.60;;;;;;;33.93;28.58;100161.50;4988267;28;20507;-72
2022/08/11 12:29:11;;;;;;;3.78;1.88;;;;;;;34.17;27.38;100118.84;5107481;28;20149;-69
2022/08/11 12:31:38;;;;;;;3.33;2.05;;;;;;;34.52;27.38;100149.59;5098948;28;20500;-72
2022/08/11 12:34:12;;;;;;;2.13;1.70;;;;;;;34.38;29.20;100152.34;5074863;28;20028;-69
2022/08/11 12:36:47;;;;;;;3.65;1.75;;;;;;;34.05;28.34;100157.16;5082622;28;20043;-69
2022/08/11 12:39:17;;;;;;;5.22;1.80;;;;;;;34.20;27.36;100149.94;5084254;28;20054;-69
2022/08/11 12:47:19;;;;;;;2.40;1.67;;;;;;;34.26;31.02;100145.94;5082287;28;20044;-69
2022/08/11 12:52:42;;;;;;;2.60;2.10;;;;;;;34.25;27.81;100139.75;5087068;28;20090;-69
2022/08/11 12:58:14;;;;;;;14.27;12.60;;;;;;;34.22;29.31;100131.94;5086801;28;20454;-68
2022/08/11 12:58:15;;;;;;;7.00;5.30;;;;;;;34.51;27.76;100145.19;5100281;28;20031;-70
2022/08/11 13:06:12;;;;;;;2.25;1.90;;;;;;;34.48;26.53;100132.84;5085984;28;20032;-67
2022/08/11 13:08:41;;;;;;;2.83;1.80;;;;;;;34.21;29.22;100134.69;5085918;28;20017;-69
2022/08/11 13:13:55;;;;;;;3.05;1.85;;;;;;;32.98;29.53;100093.53;5097749;28;20127;-68
2022/08/11 13:17:19;;;;;;;2.53;2.00;;;;;;;33.49;29.31;100131.31;5056500;28;20048;-68
2022/08/11 13:19:21;;;;;;;6.93;1.90;;;;;;;33.70;30.13;100123.69;5086719;28;20508;-67
2022/08/11 13:21:49;;;;;;;2.50;1.92;;;;;;;33.69;28.41;100116.63;5085471;28;20052;-68
2022/08/11 13:24:17;;;;;;;4.20;2.60;;;;;;;33.99;29.14;100123.59;5085340;28;20028;-68
2022/08/11 13:26:44;;;;;;;8.93;3.20;;;;;;;34.23;28.98;100120.22;5086793;28;20125;-67
2022/08/11 13:29:10;;;;;;;2.53;1.63;;;;;;;34.46;27.29;100112.50;5087782;28;20067;-67
2022/08/11 13:31:37;;;;;;;4.22;1.80;;;;;;;34.55;29.29;100116.34;5084595;28;20078;-67
2022/08/11 13:34:07;;;;;;;3.17;1.67;;;;;;;34.61;29.07;100129.34;5079187;28;20403;-67
2022/08/11 13:36:33;;;;;;;5.13;2.00;;;;;;;34.56;27.71;100126.09;5072082;28;20401;-67
2022/08/11 13:39:01;;;;;;;2.42;1.67;;;;;;;34.63;27.97;100124.69;5071276;28;20472;-67
2022/08/11 13:41:42;;;;;;;9.35;4.75;;;;;;;34.73;27.01;100127.59;5071913;28;20063;-67
2022/08/11 13:44:11;;;;;;;12.07;5.25;;;;;;;34.87;29.45;100132.88;5036099;28;20041;-66
2022/08/11 13:46:38;;;;;;;14.40;6.30;;;;;;;34.57;28.46;100125.13;5072037;28;20024;-66
2022/08/11 13:49:07;;;;;;;4.55;1.95;;;;;;;34.57;27.54;100123.31;5074308;28;20412;-66
2022/08/11 13:51:34;;;;;;;;;;;;;;;34.66;27.72;100125.34;5073076;28;20025;-66
2022/08/11 13:54:23;;;;;;;14.35;3.83;;;;;;;34.79;27.44;100124.47;5073041;28;19985;-66
2022/08/11 13:56:51;;;;;;;;;;;;;;;34.70;29.08;100120.63;5072035;28;20445;-66
2022/08/11 13:59:21;;;;;;;9.15;3.65;;;;;;;34.35;28.54;100116.75;5038890;28;19912;-65
2022/08/11 14:01:51;;;;;;;13.68;4.60;;;;;;;34.50;29.19;100113.97;5073507;28;20025;-67
2022/08/11 14:04:40;;;;;;;6.47;2.47;;;;;;;34.55;28.29;100117.19;5071669;28;20028;-67
2022/08/11 14:07:07;;;;;;;30.83;6.35;;;;;;;34.56;28.67;100080.50;5088021;28;20038;-67
2022/08/11 14:09:39;;;;;;;6.03;2.28;;;;;;;34.80;26.87;100118.16;5071396;28;20036;-68
2022/08/11 14:15:11;;;;;;;1.70;1.60;;;;;;;34.84;27.33;100116.97;5073567;28;20263;-67
2022/08/11 14:17:39;;;;;;;3.63;1.58;;;;;;;34.79;28.16;100100.34;5088811;28;20115;-68
2022/08/11 14:20:08;;;;;;;3.85;1.80;;;;;;;34.74;28.19;100115.91;5067051;28;20041;-67
2022/08/11 14:22:42;;;;;;;2.75;1.90;;;;;;;34.23;28.18;100093.44;5089143;28;20220;-67
2022/08/11 14:25:10;;;;;;;7.03;2.50;;;;;;;34.03;28.58;100106.38;5092732;28;20028;-66
2022/08/11 14:27:36;;;;;;;6.65;2.25;;;;;;;33.97;29.37;100106.81;5090284;28;20028;-67
2022/08/11 14:30:04;;;;;;;4.93;1.80;;;;;;;34.13;29.03;100111.13;5092487;28;20519;-66
2022/08/11 14:32:30;;;;;;;9.82;3.20;;;;;;;34.14;28.22;100113.69;5092708;28;20039;-67
2022/08/11 14:34:57;;;;;;;6.45;2.80;;;;;;;34.33;27.66;100110.63;5092865;28;20406;-66
2022/08/11 14:37:25;;;;;;;8.48;2.65;;;;;;;34.46;28.41;100105.28;5092672;28;20028;-66
2022/08/11 14:39:57;;;;;;;2.75;1.65;;;;;;;34.34;28.22;100082.00;5092704;28;20032;-66
2022/08/11 14:48:04;;;;;;;12.90;2.90;;;;;;;33.88;28.49;100094.00;5092453;28;20042;-66
2022/08/11 14:50:32;;;;;;;5.63;1.90;;;;;;;33.85;28.49;100119.19;5092235;28;20363;-66
2022/08/11 14:53:05;;;;;;;3.45;1.90;;;;;;;33.84;29.10;100114.78;5092345;28;20476;-66
2022/08/11 14:58:25;;;;;;;16.77;3.78;;;;;;;33.96;29.72;100118.47;5092024;28;20035;-66
2022/08/11 15:00:57;;;;;;;5.67;2.50;;;;;;;33.75;28.78;100119.84;5088903;28;20032;-66
2022/08/11 15:03:25;;;;;;;9.68;2.05;;;;;;;33.57;28.81;100121.94;5090008;28;20481;-66
2022/08/11 15:05:53;;;;;;;3.92;1.73;;;;;;;33.47;28.96;100111.84;5092150;28;20077;-66
2022/08/11 15:08:19;;;;;;;2.33;1.80;;;;;;;33.44;28.77;100113.84;5092140;28;20028;-66
2022/08/11 15:10:48;;;;;;;9.18;2.72;;;;;;;33.15;29.17;100081.75;5091076;28;20035;-67
2022/08/11 15:13:17;;;;;;;7.20;2.30;;;;;;;32.77;29.01;100050.31;5091872;28;20032;-66
2022/08/11 15:18:28;;;;;;;16.05;3.70;;;;;;;33.08;29.44;100110.72;5092247;28;20035;-67
2022/08/11 15:37:44;;;;;;;18.13;4.30;;;;;;;32.22;31.95;100120.34;5091527;28;20042;-66
2022/08/11 15:46:43;;;;;;;26.95;5.22;;;;;;;32.40;30.45;100110.38;5068636;28;20117;-66
2022/08/11 15:49:21;;;;;;;13.27;4.18;;;;;;;32.46;31.03;100117.13;5068620;28;20150;-67
2022/08/11 15:52:05;;;;;;;18.70;7.43;;;;;;;32.55;30.66;100113.06;5051939;28;20473;-68
2022/08/11 15:54:32;;;;;;;13.18;3.25;;;;;;;32.69;30.52;100118.41;5068396;28;20051;-68
2022/08/11 15:57:00;;;;;;;17.42;4.43;;;;;;;32.71;30.40;100116.53;5047423;28;20049;-68
2022/08/11 16:05:08;;;;;;;6.85;2.13;;;;;;;32.75;29.74;100111.88;5048286;28;20067;-67
2022/08/11 16:07:36;;;;;;;4.20;2.00;;;;;;;32.57;30.51;100113.81;5048410;28;20500;-67
2022/08/11 16:10:09;;;;;;;3.00;1.92;;;;;;;32.56;29.85;100112.97;5048262;28;20032;-67
2022/08/11 16:16:12;;;;;;;13.55;4.07;;;;;;;32.58;30.54;100116.41;5048194;28;20441;-67
2022/08/11 16:16:13;;;;;;;13.32;3.55;;;;;;;32.60;30.16;100121.69;5090545;28;20032;-67
2022/08/11 16:18:52;;;;;;;2.67;1.77;;;;;;;32.40;31.16;100122.84;5047950;28;20076;-67
2022/08/11 16:21:32;;;;;;;14.77;3.58;;;;;;;32.33;31.02;100134.88;5031334;28;20037;-67
2022/08/11 16:24:00;;;;;;;8.32;2.53;;;;;;;32.33;30.57;100129.53;5028037;28;20561;-67
2022/08/11 16:26:29;;;;;;;4.55;2.05;;;;;;;32.20;31.09;100121.38;5028318;28;20053;-67
2022/08/11 16:28:56;;;;;;;;;;;;;;;32.16;31.39;100126.00;5028738;28;20040;-67
2022/08/11 16:31:23;;;;;;;6.25;2.75;;;;;;;32.01;31.84;100106.41;5028223;28;20020;-67
2022/08/11 16:33:54;;;;;;;3.95;2.00;;;;;;;32.17;31.46;100137.56;5028296;28;20403;-67
2022/08/11 16:39:07;;;;;;;3.03;1.52;;;;;;;31.48;32.00;100135.22;5028415;28;20040;-67
2022/08/11 16:47:12;;;;;;;2.40;1.70;;;;;;;31.38;32.96;100158.00;5028222;28;20031;-68
2022/08/11 16:49:42;;;;;;;4.38;1.98;;;;;;;31.09;32.28;100150.66;5027052;28;20045;-67